sensor_id;sensor_type;location;lat;lon;timestamp;pressure;altitude;pressure_sealevel;temperature;humidity
69219;BME280;56232;53.384;-2.732;2023-03-18T00:00:58;99837.33;;;9.54;45.72
69219;BME280;56232;53.384;-2.732;2023-03-18T00:03:18;99841.89;;;10.10;46.03
69219;BME280;56232;53.384;-2.732;2023-03-18T00:05:43;99846.45;;;10.12;46.14
69219;BME280;56232;53.384;-2.732;2023-03-18T00:08:10;99847.17;;;10.10;46.09
69219;BME280;56232;53.384;-2.732;2023-03-18T00:10:35;99845.23;;;10.55;46.40
69219;BME280;56232;53.384;-2.732;2023-03-18T00:13:01;99847.05;;;10.07;46.20
69219;BME280;56232;53.384;-2.732;2023-03-18T00:15:27;99848.38;;;10.18;46.48
69219;BME280;56232;53.384;-2.732;2023-03-18T00:17:52;99847.57;;;10.22;46.70
69219;BME280;56232;53.384;-2.732;2023-03-18T00:20:18;99845.47;;;9.62;46.66
69219;BME280;56232;53.384;-2.732;2023-03-18T00:22:44;99850.17;;;10.16;46.98
69219;BME280;56232;53.384;-2.732;2023-03-18T00:25:11;99848.52;;;10.30;46.77
69219;BME280;56232;53.384;-2.732;2023-03-18T00:27:35;99850.94;;;10.32;46.64
69219;BME280;56232;53.384;-2.732;2023-03-18T00:30:01;99855.47;;;10.24;46.21
69219;BME280;56232;53.384;-2.732;2023-03-18T00:32:26;99858.13;;;10.27;46.34
69219;BME280;56232;53.384;-2.732;2023-03-18T00:34:51;99853.19;;;10.37;46.55
69219;BME280;56232;53.384;-2.732;2023-03-18T00:37:16;99855.79;;;10.40;46.81
69219;BME280;56232;53.384;-2.732;2023-03-18T00:39:42;99854.98;;;9.40;46.77
69219;BME280;56232;53.384;-2.732;2023-03-18T00:42:07;99855.99;;;10.72;46.48
69219;BME280;56232;53.384;-2.732;2023-03-18T00:44:33;99855.02;;;10.95;46.43
69219;BME280;56232;53.384;-2.732;2023-03-18T00:46:59;99853.60;;;10.96;46.42
69219;BME280;56232;53.384;-2.732;2023-03-18T00:49:24;99853.08;;;10.96;46.36
69219;BME280;56232;53.384;-2.732;2023-03-18T00:51:50;99851.36;;;10.45;46.23
69219;BME280;56232;53.384;-2.732;2023-03-18T00:54:15;99850.52;;;10.58;46.11
69219;BME280;56232;53.384;-2.732;2023-03-18T00:56:40;99852.28;;;10.65;46.36
69219;BME280;56232;53.384;-2.732;2023-03-18T00:59:07;99854.78;;;11.29;46.36
69219;BME280;56232;53.384;-2.732;2023-03-18T01:01:32;99855.01;;;11.39;46.37
69219;BME280;56232;53.384;-2.732;2023-03-18T01:03:57;99856.69;;;10.43;46.21
69219;BME280;56232;53.384;-2.732;2023-03-18T01:06:26;99857.63;;;10.96;45.80
69219;BME280;56232;53.384;-2.732;2023-03-18T01:08:48;99859.19;;;11.48;46.08
69219;BME280;56232;53.384;-2.732;2023-03-18T01:11:13;99858.07;;;10.86;45.26
69219;BME280;56232;53.384;-2.732;2023-03-18T01:13:39;99861.35;;;10.58;45.21
69219;BME280;56232;53.384;-2.732;2023-03-18T01:16:05;99861.26;;;9.83;45.81
69219;BME280;56232;53.384;-2.732;2023-03-18T01:18:30;99859.82;;;10.84;46.03
69219;BME280;56232;53.384;-2.732;2023-03-18T01:20:56;99859.68;;;10.25;46.02
69219;BME280;56232;53.384;-2.732;2023-03-18T01:23:22;99856.45;;;10.75;46.10
69219;BME280;56232;53.384;-2.732;2023-03-18T01:25:47;99856.91;;;10.69;46.32
69219;BME280;56232;53.384;-2.732;2023-03-18T01:28:13;99856.18;;;10.63;46.14
69219;BME280;56232;53.384;-2.732;2023-03-18T01:30:38;99855.19;;;10.59;45.76
69219;BME280;56232;53.384;-2.732;2023-03-18T01:33:04;99851.92;;;10.53;45.82
69219;BME280;56232;53.384;-2.732;2023-03-18T01:35:29;99854.58;;;9.89;46.40
69219;BME280;56232;53.384;-2.732;2023-03-18T01:37:54;99853.61;;;10.52;46.52
69219;BME280;56232;53.384;-2.732;2023-03-18T01:40:21;99855.10;;;10.43;46.41
69219;BME280;56232;53.384;-2.732;2023-03-18T01:42:51;99852.55;;;10.43;46.43
69219;BME280;56232;53.384;-2.732;2023-03-18T01:45:15;99854.18;;;9.75;46.46
69219;BME280;56232;53.384;-2.732;2023-03-18T01:47:37;99854.82;;;10.28;46.40
69219;BME280;56232;53.384;-2.732;2023-03-18T01:50:02;99853.63;;;10.07;46.44
69219;BME280;56232;53.384;-2.732;2023-03-18T01:52:29;99854.44;;;10.18;46.40
69219;BME280;56232;53.384;-2.732;2023-03-18T01:54:56;99851.70;;;10.22;46.52
69219;BME280;56232;53.384;-2.732;2023-03-18T01:57:20;99851.05;;;10.26;46.55
69219;BME280;56232;53.384;-2.732;2023-03-18T01:59:46;99846.46;;;10.31;46.64
69219;BME280;56232;53.384;-2.732;2023-03-18T02:02:12;99846.44;;;9.77;46.56
69219;BME280;56232;53.384;-2.732;2023-03-18T02:04:40;99848.18;;;9.79;46.42
69219;BME280;56232;53.384;-2.732;2023-03-18T02:07:01;99848.48;;;9.78;46.46
69219;BME280;56232;53.384;-2.732;2023-03-18T02:09:27;99849.12;;;10.82;46.62
69219;BME280;56232;53.384;-2.732;2023-03-18T02:11:52;99853.12;;;10.25;46.65
69219;BME280;56232;53.384;-2.732;2023-03-18T02:14:21;99849.96;;;10.31;46.62
69219;BME280;56232;53.384;-2.732;2023-03-18T02:16:47;99849.90;;;9.76;46.23
69219;BME280;56232;53.384;-2.732;2023-03-18T02:19:17;99846.34;;;10.49;46.38
69219;BME280;56232;53.384;-2.732;2023-03-18T02:21:42;99844.91;;;10.62;46.26
69219;BME280;56232;53.384;-2.732;2023-03-18T02:24:08;99844.06;;;10.57;46.06
69219;BME280;56232;53.384;-2.732;2023-03-18T02:26:30;99844.14;;;10.46;46.45
69219;BME280;56232;53.384;-2.732;2023-03-18T02:28:53;99841.89;;;10.53;46.26
69219;BME280;56232;53.384;-2.732;2023-03-18T02:31:17;99840.50;;;10.58;46.38
69219;BME280;56232;53.384;-2.732;2023-03-18T02:33:43;99843.73;;;10.59;46.60
69219;BME280;56232;53.384;-2.732;2023-03-18T02:36:13;99843.14;;;10.63;45.92
69219;BME280;56232;53.384;-2.732;2023-03-18T02:38:34;99843.72;;;10.53;46.01
69219;BME280;56232;53.384;-2.732;2023-03-18T02:40:59;99840.40;;;10.45;46.04
69219;BME280;56232;53.384;-2.732;2023-03-18T02:43:26;99837.92;;;10.39;46.01
69219;BME280;56232;53.384;-2.732;2023-03-18T02:46:03;99836.40;;;10.26;46.02
69219;BME280;56232;53.384;-2.732;2023-03-18T02:48:17;99836.73;;;10.31;46.29
69219;BME280;56232;53.384;-2.732;2023-03-18T02:50:42;99838.55;;;10.23;46.41
69219;BME280;56232;53.384;-2.732;2023-03-18T02:53:07;99842.68;;;10.09;46.09
69219;BME280;56232;53.384;-2.732;2023-03-18T02:55:33;99842.54;;;10.10;46.22
69219;BME280;56232;53.384;-2.732;2023-03-18T02:57:58;99844.63;;;10.09;46.45
69219;BME280;56232;53.384;-2.732;2023-03-18T03:00:23;99845.47;;;10.19;46.43
69219;BME280;56232;53.384;-2.732;2023-03-18T03:02:49;99843.38;;;10.25;46.42
69219;BME280;56232;53.384;-2.732;2023-03-18T03:05:14;99846.79;;;10.24;46.35
69219;BME280;56232;53.384;-2.732;2023-03-18T03:07:40;99848.12;;;10.31;46.49
69219;BME280;56232;53.384;-2.732;2023-03-18T03:10:07;99851.11;;;10.43;46.39
69219;BME280;56232;53.384;-2.732;2023-03-18T03:12:31;99850.78;;;10.68;45.86
69219;BME280;56232;53.384;-2.732;2023-03-18T03:14:57;99852.92;;;10.09;46.03
69219;BME280;56232;53.384;-2.732;2023-03-18T03:17:23;99851.95;;;10.70;45.77
69219;BME280;56232;53.384;-2.732;2023-03-18T03:19:48;99853.56;;;10.15;45.91
69219;BME280;56232;53.384;-2.732;2023-03-18T03:22:13;99856.49;;;10.88;46.04
69219;BME280;56232;53.384;-2.732;2023-03-18T03:24:39;99853.41;;;9.91;45.93
69219;BME280;56232;53.384;-2.732;2023-03-18T03:27:05;99856.18;;;10.49;45.70
69219;BME280;56232;53.384;-2.732;2023-03-18T03:29:30;99858.85;;;10.05;45.65
69219;BME280;56232;53.384;-2.732;2023-03-18T03:31:56;99859.59;;;10.11;45.83
69219;BME280;56232;53.384;-2.732;2023-03-18T03:34:22;99863.52;;;10.58;45.72
69219;BME280;56232;53.384;-2.732;2023-03-18T03:36:47;99859.45;;;10.48;45.79
69219;BME280;56232;53.384;-2.732;2023-03-18T03:39:12;99861.32;;;10.45;45.96
69219;BME280;56232;53.384;-2.732;2023-03-18T03:41:38;99865.63;;;11.18;45.79
69219;BME280;56232;53.384;-2.732;2023-03-18T03:44:03;99864.71;;;10.79;45.29
69219;BME280;56232;53.384;-2.732;2023-03-18T03:46:29;99863.44;;;10.42;44.91
69219;BME280;56232;53.384;-2.732;2023-03-18T03:48:54;99864.55;;;10.90;45.04
69219;BME280;56232;53.384;-2.732;2023-03-18T03:51:20;99864.62;;;10.45;45.13
69219;BME280;56232;53.384;-2.732;2023-03-18T03:53:45;99864.16;;;11.02;45.17
69219;BME280;56232;53.384;-2.732;2023-03-18T03:56:11;99861.80;;;11.03;44.90
69219;BME280;56232;53.384;-2.732;2023-03-18T03:58:37;99864.89;;;11.61;45.14
69219;BME280;56232;53.384;-2.732;2023-03-18T04:01:02;99863.77;;;10.54;45.24
69219;BME280;56232;53.384;-2.732;2023-03-18T04:03:28;99862.84;;;10.66;45.25
69219;BME280;56232;53.384;-2.732;2023-03-18T04:05:53;99864.70;;;11.25;45.05
69219;BME280;56232;53.384;-2.732;2023-03-18T04:08:19;99871.98;;;11.26;44.97
69219;BME280;56232;53.384;-2.732;2023-03-18T04:10:44;99877.06;;;10.79;45.12
69219;BME280;56232;53.384;-2.732;2023-03-18T04:13:09;99875.71;;;11.94;44.77
69219;BME280;56232;53.384;-2.732;2023-03-18T04:15:35;99880.97;;;10.81;44.70
69219;BME280;56232;53.384;-2.732;2023-03-18T04:18:01;99882.53;;;10.91;44.80
69219;BME280;56232;53.384;-2.732;2023-03-18T04:20:26;99886.44;;;11.48;44.88
69219;BME280;56232;53.384;-2.732;2023-03-18T04:22:52;99884.61;;;11.09;44.85
69219;BME280;56232;53.384;-2.732;2023-03-18T04:25:17;99884.19;;;11.54;45.00
69219;BME280;56232;53.384;-2.732;2023-03-18T04:27:43;99886.26;;;11.12;44.95
69219;BME280;56232;53.384;-2.732;2023-03-18T04:30:10;99889.86;;;10.89;44.91
69219;BME280;56232;53.384;-2.732;2023-03-18T04:32:34;99891.23;;;10.70;44.84
69219;BME280;56232;53.384;-2.732;2023-03-18T04:34:59;99894.10;;;10.61;45.04
69219;BME280;56232;53.384;-2.732;2023-03-18T04:37:24;99896.69;;;10.56;44.99
69219;BME280;56232;53.384;-2.732;2023-03-18T04:39:50;99896.59;;;10.48;45.02
69219;BME280;56232;53.384;-2.732;2023-03-18T04:42:16;99897.02;;;10.90;44.96
69219;BME280;56232;53.384;-2.732;2023-03-18T04:44:41;99896.33;;;10.77;45.21
69219;BME280;56232;53.384;-2.732;2023-03-18T04:47:07;99898.55;;;10.23;45.19
69219;BME280;56232;53.384;-2.732;2023-03-18T04:49:32;99903.45;;;10.26;45.25
69219;BME280;56232;53.384;-2.732;2023-03-18T04:51:57;99907.84;;;10.80;45.40
69219;BME280;56232;53.384;-2.732;2023-03-18T04:54:23;99907.72;;;10.93;45.18
69219;BME280;56232;53.384;-2.732;2023-03-18T04:56:47;99906.28;;;10.40;45.11
69219;BME280;56232;53.384;-2.732;2023-03-18T04:59:13;99906.72;;;10.99;45.01
69219;BME280;56232;53.384;-2.732;2023-03-18T05:01:38;99912.37;;;10.59;45.14
69219;BME280;56232;53.384;-2.732;2023-03-18T05:04:04;99915.46;;;11.29;44.98
69219;BME280;56232;53.384;-2.732;2023-03-18T05:06:30;99916.27;;;10.91;44.84
69219;BME280;56232;53.384;-2.732;2023-03-18T05:08:55;99920.17;;;11.06;44.72
69219;BME280;56232;53.384;-2.732;2023-03-18T05:11:21;99920.32;;;11.70;44.73
69219;BME280;56232;53.384;-2.732;2023-03-18T05:13:45;99920.91;;;11.31;44.71
69219;BME280;56232;53.384;-2.732;2023-03-18T05:16:11;99918.84;;;11.30;44.62
69219;BME280;56232;53.384;-2.732;2023-03-18T05:18:36;99917.92;;;11.70;44.80
69219;BME280;56232;53.384;-2.732;2023-03-18T05:21:01;99916.51;;;11.25;44.62
69219;BME280;56232;53.384;-2.732;2023-03-18T05:23:26;99916.45;;;11.26;44.50
69219;BME280;56232;53.384;-2.732;2023-03-18T05:25:52;99915.86;;;11.29;44.33
69219;BME280;56232;53.384;-2.732;2023-03-18T05:28:17;99914.24;;;11.30;44.33
69219;BME280;56232;53.384;-2.732;2023-03-18T05:30:43;99911.98;;;11.37;44.44
69219;BME280;56232;53.384;-2.732;2023-03-18T05:33:08;99917.17;;;11.42;44.43
69219;BME280;56232;53.384;-2.732;2023-03-18T05:35:34;99919.28;;;11.45;44.56
69219;BME280;56232;53.384;-2.732;2023-03-18T05:38:00;99921.00;;;11.41;44.20
69219;BME280;56232;53.384;-2.732;2023-03-18T05:40:25;99922.14;;;11.79;44.37
69219;BME280;56232;53.384;-2.732;2023-03-18T05:42:51;99919.59;;;11.23;44.53
69219;BME280;56232;53.384;-2.732;2023-03-18T05:45:16;99920.57;;;11.24;44.50
69219;BME280;56232;53.384;-2.732;2023-03-18T05:47:42;99924.19;;;11.05;44.53
69219;BME280;56232;53.384;-2.732;2023-03-18T05:50:08;99924.91;;;11.44;44.51
69219;BME280;56232;53.384;-2.732;2023-03-18T05:52:33;99930.39;;;10.90;44.81
69219;BME280;56232;53.384;-2.732;2023-03-18T05:54:58;99931.16;;;11.04;44.84
69219;BME280;56232;53.384;-2.732;2023-03-18T05:57:23;99935.04;;;11.14;44.82
69219;BME280;56232;53.384;-2.732;2023-03-18T05:59:49;99938.43;;;11.72;44.62
69219;BME280;56232;53.384;-2.732;2023-03-18T06:02:14;99939.72;;;11.35;44.68
69219;BME280;56232;53.384;-2.732;2023-03-18T06:04:40;99940.73;;;11.40;44.53
69219;BME280;56232;53.384;-2.732;2023-03-18T06:07:05;99942.93;;;11.24;44.48
69219;BME280;56232;53.384;-2.732;2023-03-18T06:09:31;99941.93;;;11.66;44.45
69219;BME280;56232;53.384;-2.732;2023-03-18T06:11:56;99944.95;;;10.88;44.40
69219;BME280;56232;53.384;-2.732;2023-03-18T06:14:23;99946.04;;;10.83;44.61
69219;BME280;56232;53.384;-2.732;2023-03-18T06:16:47;99948.33;;;10.79;44.35
69219;BME280;56232;53.384;-2.732;2023-03-18T06:19:13;99949.63;;;11.21;44.38
69219;BME280;56232;53.384;-2.732;2023-03-18T06:21:39;99949.66;;;11.19;44.62
69219;BME280;56232;53.384;-2.732;2023-03-18T06:24:04;99951.97;;;11.80;44.52
69219;BME280;56232;53.384;-2.732;2023-03-18T06:26:29;99949.87;;;11.25;44.56
69219;BME280;56232;53.384;-2.732;2023-03-18T06:28:54;99955.18;;;11.29;44.42
69219;BME280;56232;53.384;-2.732;2023-03-18T06:31:20;99959.62;;;10.85;44.39
69219;BME280;56232;53.384;-2.732;2023-03-18T06:33:45;99962.74;;;10.99;44.40
69219;BME280;56232;53.384;-2.732;2023-03-18T06:36:10;99965.62;;;12.15;44.30
69219;BME280;56232;53.384;-2.732;2023-03-18T06:38:36;99969.82;;;10.91;44.26
69219;BME280;56232;53.384;-2.732;2023-03-18T06:41:01;99968.67;;;10.87;44.27
69219;BME280;56232;53.384;-2.732;2023-03-18T06:43:27;99971.21;;;11.49;44.17
69219;BME280;56232;53.384;-2.732;2023-03-18T06:45:53;99972.65;;;11.56;43.78
69219;BME280;56232;53.384;-2.732;2023-03-18T06:48:18;99974.45;;;11.00;44.05
69219;BME280;56232;53.384;-2.732;2023-03-18T06:50:44;99978.17;;;12.18;44.00
69219;BME280;56232;53.384;-2.732;2023-03-18T06:53:10;99978.98;;;11.69;43.83
69219;BME280;56232;53.384;-2.732;2023-03-18T06:55:35;99979.64;;;11.22;43.81
69219;BME280;56232;53.384;-2.732;2023-03-18T06:58:00;99980.70;;;11.31;43.65
69219;BME280;56232;53.384;-2.732;2023-03-18T07:00:26;99980.66;;;11.83;43.77
69219;BME280;56232;53.384;-2.732;2023-03-18T07:02:51;99981.19;;;11.49;43.71
69219;BME280;56232;53.384;-2.732;2023-03-18T07:05:17;99982.99;;;12.11;43.44
69219;BME280;56232;53.384;-2.732;2023-03-18T07:07:42;99983.61;;;10.49;43.41
69219;BME280;56232;53.384;-2.732;2023-03-18T07:10:18;99980.58;;;11.63;43.47
69219;BME280;56232;53.384;-2.732;2023-03-18T07:12:33;99984.49;;;11.70;43.26
69219;BME280;56232;53.384;-2.732;2023-03-18T07:14:59;99987.56;;;11.79;43.31
69219;BME280;56232;53.384;-2.732;2023-03-18T07:17:25;99989.34;;;11.84;43.16
69219;BME280;56232;53.384;-2.732;2023-03-18T07:19:50;99993.54;;;11.97;43.22
69219;BME280;56232;53.384;-2.732;2023-03-18T07:22:16;99996.71;;;11.60;43.03
69219;BME280;56232;53.384;-2.732;2023-03-18T07:24:41;100000.37;;;12.16;42.98
69219;BME280;56232;53.384;-2.732;2023-03-18T07:27:07;100005.65;;;12.33;43.02
69219;BME280;56232;53.384;-2.732;2023-03-18T07:29:32;100009.47;;;12.51;43.11
69219;BME280;56232;53.384;-2.732;2023-03-18T07:31:58;100007.96;;;12.73;42.77
69219;BME280;56232;53.384;-2.732;2023-03-18T07:34:23;100005.85;;;12.75;42.63
69219;BME280;56232;53.384;-2.732;2023-03-18T07:36:49;100010.89;;;12.82;42.67
69219;BME280;56232;53.384;-2.732;2023-03-18T07:39:15;100013.95;;;11.92;42.58
69219;BME280;56232;53.384;-2.732;2023-03-18T07:41:40;100013.12;;;12.05;42.52
69219;BME280;56232;53.384;-2.732;2023-03-18T07:44:06;100015.88;;;11.70;42.45
69219;BME280;56232;53.384;-2.732;2023-03-18T07:46:31;100016.72;;;12.37;42.18
69219;BME280;56232;53.384;-2.732;2023-03-18T07:48:57;100020.78;;;12.43;42.07
69219;BME280;56232;53.384;-2.732;2023-03-18T07:51:23;100019.24;;;12.54;41.55
69219;BME280;56232;53.384;-2.732;2023-03-18T07:53:48;100020.96;;;13.23;41.59
69219;BME280;56232;53.384;-2.732;2023-03-18T07:56:14;100022.48;;;13.55;41.42
69219;BME280;56232;53.384;-2.732;2023-03-18T07:58:39;100024.44;;;14.01;40.63
69219;BME280;56232;53.384;-2.732;2023-03-18T08:01:04;100024.61;;;16.27;39.03
69219;BME280;56232;53.384;-2.732;2023-03-18T08:03:30;100025.17;;;17.55;37.22
69219;BME280;56232;53.384;-2.732;2023-03-18T08:05:55;100029.07;;;17.77;36.83
69219;BME280;56232;53.384;-2.732;2023-03-18T08:08:21;100029.33;;;18.40;36.27
69219;BME280;56232;53.384;-2.732;2023-03-18T08:10:45;100030.43;;;18.48;36.01
69219;BME280;56232;53.384;-2.732;2023-03-18T08:13:11;100030.73;;;18.91;35.12
69219;BME280;56232;53.384;-2.732;2023-03-18T08:15:37;100026.23;;;20.86;33.56
69219;BME280;56232;53.384;-2.732;2023-03-18T08:18:02;100030.58;;;21.73;33.22
69219;BME280;56232;53.384;-2.732;2023-03-18T08:20:27;100031.71;;;21.14;32.82
69219;BME280;56232;53.384;-2.732;2023-03-18T08:22:53;100035.92;;;21.18;32.63
69219;BME280;56232;53.384;-2.732;2023-03-18T08:25:18;100034.95;;;21.98;31.47
69219;BME280;56232;53.384;-2.732;2023-03-18T08:27:44;100038.44;;;23.99;30.08
69219;BME280;56232;53.384;-2.732;2023-03-18T08:30:11;100035.34;;;24.95;27.78
69219;BME280;56232;53.384;-2.732;2023-03-18T08:32:34;100036.43;;;25.98;27.54
69219;BME280;56232;53.384;-2.732;2023-03-18T08:35:00;100040.64;;;26.87;25.79
69219;BME280;56232;53.384;-2.732;2023-03-18T08:37:26;100041.01;;;28.47;26.08
69219;BME280;56232;53.384;-2.732;2023-03-18T08:39:51;100042.83;;;27.46;25.83
69219;BME280;56232;53.384;-2.732;2023-03-18T08:42:17;100045.28;;;25.92;26.47
69219;BME280;56232;53.384;-2.732;2023-03-18T08:44:42;100048.37;;;23.50;27.72
69219;BME280;56232;53.384;-2.732;2023-03-18T08:47:08;100049.11;;;21.84;29.75
69219;BME280;56232;53.384;-2.732;2023-03-18T08:49:33;100053.20;;;20.87;31.05
69219;BME280;56232;53.384;-2.732;2023-03-18T08:51:59;100049.49;;;19.68;32.25
69219;BME280;56232;53.384;-2.732;2023-03-18T08:54:24;100053.48;;;19.82;32.66
69219;BME280;56232;53.384;-2.732;2023-03-18T08:56:50;100054.67;;;19.19;33.10
69219;BME280;56232;53.384;-2.732;2023-03-18T08:59:15;100059.28;;;18.35;33.74
69219;BME280;56232;53.384;-2.732;2023-03-18T09:01:41;100056.53;;;18.11;34.41
69219;BME280;56232;53.384;-2.732;2023-03-18T09:04:07;100053.11;;;18.12;34.76
69219;BME280;56232;53.384;-2.732;2023-03-18T09:06:32;100051.62;;;19.63;33.50
69219;BME280;56232;53.384;-2.732;2023-03-18T09:08:58;100048.80;;;21.71;32.14
69219;BME280;56232;53.384;-2.732;2023-03-18T09:11:24;100047.61;;;22.56;30.46
69219;BME280;56232;53.384;-2.732;2023-03-18T09:13:49;100051.48;;;24.66;29.30
69219;BME280;56232;53.384;-2.732;2023-03-18T09:16:14;100052.68;;;25.02;28.31
69219;BME280;56232;53.384;-2.732;2023-03-18T09:18:40;100053.87;;;26.23;27.47
69219;BME280;56232;53.384;-2.732;2023-03-18T09:21:06;100052.97;;;26.18;27.02
69219;BME280;56232;53.384;-2.732;2023-03-18T09:23:31;100048.01;;;27.23;27.17
69219;BME280;56232;53.384;-2.732;2023-03-18T09:25:56;100048.65;;;26.71;26.55
69219;BME280;56232;53.384;-2.732;2023-03-18T09:28:23;100048.46;;;27.20;26.47
69219;BME280;56232;53.384;-2.732;2023-03-18T09:30:49;100049.29;;;28.26;26.13
69219;BME280;56232;53.384;-2.732;2023-03-18T09:33:13;100052.20;;;28.12;25.84
69219;BME280;56232;53.384;-2.732;2023-03-18T09:35:39;100054.03;;;27.28;25.84
69219;BME280;56232;53.384;-2.732;2023-03-18T09:38:04;100064.98;;;26.72;25.61
69219;BME280;56232;53.384;-2.732;2023-03-18T09:40:31;100068.34;;;25.15;26.98
69219;BME280;56232;53.384;-2.732;2023-03-18T09:43:04;100068.23;;;26.12;26.00
69219;BME280;56232;53.384;-2.732;2023-03-18T09:45:25;100070.57;;;26.63;26.87
69219;BME280;56232;53.384;-2.732;2023-03-18T09:50:20;100075.55;;;25.98;26.17
69219;BME280;56232;53.384;-2.732;2023-03-18T09:52:40;100074.26;;;24.81;26.77
69219;BME280;56232;53.384;-2.732;2023-03-18T09:55:04;100076.20;;;26.16;27.39
69219;BME280;56232;53.384;-2.732;2023-03-18T09:57:31;100076.28;;;25.60;27.00
69219;BME280;56232;53.384;-2.732;2023-03-18T09:59:58;100079.50;;;25.73;27.16
69219;BME280;56232;53.384;-2.732;2023-03-18T10:02:22;100077.67;;;26.31;26.55
69219;BME280;56232;53.384;-2.732;2023-03-18T10:04:48;100072.87;;;26.18;26.77
69219;BME280;56232;53.384;-2.732;2023-03-18T10:07:13;100070.69;;;27.27;26.46
69219;BME280;56232;53.384;-2.732;2023-03-18T10:09:40;100076.74;;;26.55;26.02
69219;BME280;56232;53.384;-2.732;2023-03-18T10:12:06;100073.92;;;26.47;25.32
69219;BME280;56232;53.384;-2.732;2023-03-18T10:14:35;100073.07;;;26.68;26.17
69219;BME280;56232;53.384;-2.732;2023-03-18T10:17:00;100075.52;;;25.22;26.80
69219;BME280;56232;53.384;-2.732;2023-03-18T10:19:17;100076.08;;;25.25;26.58
69219;BME280;56232;53.384;-2.732;2023-03-18T10:21:49;100076.42;;;25.51;25.88
69219;BME280;56232;53.384;-2.732;2023-03-18T10:24:20;100074.66;;;26.07;25.81
69219;BME280;56232;53.384;-2.732;2023-03-18T10:26:39;100074.17;;;24.99;24.58
69219;BME280;56232;53.384;-2.732;2023-03-18T10:29:06;100076.92;;;24.91;27.12
69219;BME280;56232;53.384;-2.732;2023-03-18T10:31:32;100086.74;;;23.87;28.86
69219;BME280;56232;53.384;-2.732;2023-03-18T10:33:56;100080.26;;;21.99;29.29
69219;BME280;56232;53.384;-2.732;2023-03-18T10:36:18;100081.43;;;21.97;30.87
69219;BME280;56232;53.384;-2.732;2023-03-18T10:38:43;100084.36;;;20.55;32.77
69219;BME280;56232;53.384;-2.732;2023-03-18T10:41:14;100083.30;;;19.91;31.99
69219;BME280;56232;53.384;-2.732;2023-03-18T10:43:33;100087.60;;;19.52;35.27
69219;BME280;56232;53.384;-2.732;2023-03-18T10:46:00;100092.42;;;19.74;35.89
69219;BME280;56232;53.384;-2.732;2023-03-18T10:48:27;100091.44;;;19.61;35.18
69219;BME280;56232;53.384;-2.732;2023-03-18T10:50:53;100087.08;;;19.03;34.46
69219;BME280;56232;53.384;-2.732;2023-03-18T10:53:19;100087.05;;;19.06;35.98
69219;BME280;56232;53.384;-2.732;2023-03-18T10:55:46;100089.90;;;18.43;37.62
69219;BME280;56232;53.384;-2.732;2023-03-18T10:58:14;100092.31;;;18.42;36.30
69219;BME280;56232;53.384;-2.732;2023-03-18T11:00:32;100096.67;;;18.96;36.42
69219;BME280;56232;53.384;-2.732;2023-03-18T11:02:58;100095.03;;;19.31;36.84
69219;BME280;56232;53.384;-2.732;2023-03-18T11:05:25;100093.65;;;19.04;36.66
69219;BME280;56232;53.384;-2.732;2023-03-18T11:07:54;100092.70;;;18.27;37.79
69219;BME280;56232;53.384;-2.732;2023-03-18T11:10:17;100091.48;;;18.51;38.08
69219;BME280;56232;53.384;-2.732;2023-03-18T11:12:39;100092.29;;;17.67;38.27
69219;BME280;56232;53.384;-2.732;2023-03-18T11:15:09;100095.92;;;18.45;38.36
69219;BME280;56232;53.384;-2.732;2023-03-18T11:17:32;100097.67;;;18.67;38.52
69219;BME280;56232;53.384;-2.732;2023-03-18T11:20:02;100098.32;;;17.83;37.36
69219;BME280;56232;53.384;-2.732;2023-03-18T11:22:23;100097.09;;;18.51;38.07
69219;BME280;56232;53.384;-2.732;2023-03-18T11:27:23;100093.52;;;17.51;39.15
69219;BME280;56232;53.384;-2.732;2023-03-18T11:29:41;100095.30;;;17.43;38.83
69219;BME280;56232;53.384;-2.732;2023-03-18T11:32:04;100094.76;;;16.75;39.73
69219;BME280;56232;53.384;-2.732;2023-03-18T11:34:31;100099.93;;;16.23;39.82
69219;BME280;56232;53.384;-2.732;2023-03-18T11:36:57;100099.08;;;16.32;40.82
69219;BME280;56232;53.384;-2.732;2023-03-18T11:39:23;100096.09;;;15.92;40.82
69219;BME280;56232;53.384;-2.732;2023-03-18T11:41:46;100100.64;;;17.09;40.01
69219;BME280;56232;53.384;-2.732;2023-03-18T11:44:16;100099.43;;;16.40;40.16
69219;BME280;56232;53.384;-2.732;2023-03-18T11:46:41;100102.77;;;16.26;40.97
69219;BME280;56232;53.384;-2.732;2023-03-18T11:49:03;100100.42;;;16.55;40.86
69219;BME280;56232;53.384;-2.732;2023-03-18T11:51:37;100101.09;;;16.57;40.92
69219;BME280;56232;53.384;-2.732;2023-03-18T11:54:05;100102.89;;;15.78;40.98
69219;BME280;56232;53.384;-2.732;2023-03-18T11:56:25;100101.93;;;17.02;40.67
69219;BME280;56232;53.384;-2.732;2023-03-18T12:01:15;100096.05;;;17.08;40.41
69219;BME280;56232;53.384;-2.732;2023-03-18T12:03:47;100096.71;;;17.18;40.06
69219;BME280;56232;53.384;-2.732;2023-03-18T12:06:10;100096.15;;;17.55;39.92
69219;BME280;56232;53.384;-2.732;2023-03-18T12:08:36;100101.53;;;16.35;40.46
69219;BME280;56232;53.384;-2.732;2023-03-18T12:11:00;100104.73;;;16.70;40.38
69219;BME280;56232;53.384;-2.732;2023-03-18T12:13:28;100098.42;;;16.75;40.53
69219;BME280;56232;53.384;-2.732;2023-03-18T12:15:49;100101.48;;;15.82;41.18
69219;BME280;56232;53.384;-2.732;2023-03-18T12:18:19;100107.48;;;16.07;41.27
69219;BME280;56232;53.384;-2.732;2023-03-18T12:20:46;100111.24;;;16.39;41.61
69219;BME280;56232;53.384;-2.732;2023-03-18T12:23:03;100110.48;;;16.05;41.54
69219;BME280;56232;53.384;-2.732;2023-03-18T12:27:59;100114.80;;;15.71;41.88
69219;BME280;56232;53.384;-2.732;2023-03-18T12:30:32;100113.33;;;15.58;41.89
69219;BME280;56232;53.384;-2.732;2023-03-18T12:32:48;100106.72;;;15.47;42.23
69219;BME280;56232;53.384;-2.732;2023-03-18T12:35:20;100105.48;;;15.57;42.27
69219;BME280;56232;53.384;-2.732;2023-03-18T12:37:44;100104.85;;;15.84;42.24
69219;BME280;56232;53.384;-2.732;2023-03-18T12:40:14;100102.70;;;16.27;41.94
69219;BME280;56232;53.384;-2.732;2023-03-18T12:42:36;100101.76;;;16.51;41.67
69219;BME280;56232;53.384;-2.732;2023-03-18T12:44:57;100104.70;;;16.27;41.43